createdAt,value
2018-05-02T00:02:21.980Z,67.17
2018-05-02T00:04:51.242Z,70.03
2018-05-02T00:07:20.065Z,63.40
2018-05-02T00:09:49.794Z,72.13
2018-05-02T00:12:18.792Z,64.67
2018-05-02T00:14:47.669Z,64.60
2018-05-02T00:17:16.436Z,64.27
2018-05-02T00:19:45.363Z,66.60
2018-05-02T00:22:14.300Z,63.33
2018-05-02T00:24:43.177Z,65.67
2018-05-02T00:27:12.908Z,73.90
2018-05-02T00:29:42.407Z,89.03
2018-05-02T00:32:11.391Z,84.13
2018-05-02T00:34:40.104Z,91.57
2018-05-02T00:37:09.637Z,78.93
2018-05-02T00:39:38.752Z,77.40
2018-05-02T00:42:07.782Z,82.57
2018-05-02T00:44:36.613Z,74.97
2018-05-02T00:47:05.416Z,81.67
2018-05-02T00:49:34.401Z,84.40
2018-05-02T00:52:03.214Z,82.63
2018-05-02T00:54:31.978Z,84.83
2018-05-02T00:57:00.915Z,85.67
2018-05-02T00:59:30.465Z,87.83
2018-05-02T01:01:59.329Z,89.90
2018-05-02T01:04:28.172Z,83.97
2018-05-02T01:06:57.316Z,91.17
2018-05-02T01:09:26.190Z,89.00
2018-05-02T01:11:55.932Z,79.40
2018-05-02T01:14:24.990Z,75.27
2018-05-02T01:16:53.797Z,77.77
2018-05-02T01:19:22.460Z,72.63
2018-05-02T01:21:51.394Z,74.37
2018-05-02T01:24:20.253Z,72.47
2018-05-02T01:26:49.932Z,64.67
2018-05-02T01:29:18.712Z,68.80
2018-05-02T01:31:47.543Z,70.70
2018-05-02T01:34:17.293Z,70.00
2018-05-02T01:36:46.301Z,71.30
2018-05-02T01:39:15.856Z,72.07
2018-05-02T01:41:44.709Z,71.90
2018-05-02T01:44:13.753Z,79.43
2018-05-02T01:46:42.978Z,82.97
2018-05-02T01:49:23.697Z,84.53
2018-05-02T01:51:52.691Z,77.20
2018-05-02T01:54:21.696Z,76.83
2018-05-02T01:56:50.462Z,74.43
2018-05-02T01:59:19.252Z,79.93
2018-05-02T02:01:48.093Z,84.77
2018-05-02T02:04:16.818Z,82.90
2018-05-02T02:06:45.741Z,89.97
2018-05-02T02:09:14.551Z,97.03
2018-05-02T02:11:43.313Z,89.17
2018-05-02T02:14:12.224Z,88.10
2018-05-02T02:16:42.006Z,93.27
2018-05-02T02:19:10.787Z,92.63
2018-05-02T02:21:39.584Z,90.13
2018-05-02T02:24:08.733Z,97.23
2018-05-02T02:26:37.502Z,102.10
2018-05-02T02:29:06.383Z,106.30
2018-05-02T02:31:35.127Z,105.73
2018-05-02T02:34:04.034Z,100.33
2018-05-02T02:36:32.814Z,95.30
2018-05-02T02:39:01.754Z,94.63
2018-05-02T02:41:30.747Z,103.90
2018-05-02T02:43:59.537Z,100.73
2018-05-02T02:46:28.460Z,98.87
2018-05-02T02:48:57.244Z,99.57
2018-05-02T02:51:26.025Z,105.73
2018-05-02T02:53:54.871Z,104.47
2018-05-02T02:56:23.699Z,101.83
2018-05-02T02:58:52.893Z,107.07
2018-05-02T03:01:21.726Z,107.80
2018-05-02T03:03:50.518Z,146.90
2018-05-02T03:06:19.845Z,122.90
2018-05-02T03:08:48.712Z,114.23
2018-05-02T03:11:18.453Z,112.17
2018-05-02T03:13:47.270Z,124.20
2018-05-02T03:16:16.074Z,151.00
2018-05-02T03:18:45.705Z,125.33
2018-05-02T03:21:14.548Z,124.63
2018-05-02T03:23:43.309Z,127.67
2018-05-02T03:26:13.303Z,122.87
2018-05-02T03:28:42.403Z,145.13
2018-05-02T03:31:11.965Z,129.53
2018-05-02T03:33:40.758Z,131.67
2018-05-02T03:36:09.736Z,136.27
2018-05-02T03:38:38.599Z,127.20
2018-05-02T03:41:17.825Z,126.27
2018-05-02T03:43:47.180Z,135.10
2018-05-02T03:46:16.213Z,133.50
2018-05-02T03:48:45.969Z,134.73
2018-05-02T03:51:14.796Z,114.60
2018-05-02T03:53:43.649Z,120.77
2018-05-02T03:56:13.313Z,124.17
2018-05-02T03:58:42.891Z,154.80
2018-05-02T04:01:23.365Z,114.10
2018-05-02T04:04:04.450Z,101.53
2018-05-02T04:06:45.238Z,102.50
2018-05-02T04:09:15.375Z,110.40
2018-05-02T04:11:45.054Z,105.63
2018-05-02T04:14:14.051Z,126.07
2018-05-02T04:16:43.573Z,132.17
2018-05-02T04:19:13.171Z,140.27
2018-05-02T04:21:42.032Z,101.77
2018-05-02T04:24:10.859Z,104.13
2018-05-02T04:26:39.690Z,92.07
2018-05-02T04:29:08.469Z,91.50
2018-05-02T04:31:37.331Z,79.23
2018-05-02T04:34:06.098Z,101.77
2018-05-02T04:36:34.864Z,93.13
2018-05-02T04:39:03.870Z,110.17
2018-05-02T04:41:33.174Z,101.43
2018-05-02T04:44:02.113Z,112.57
2018-05-02T04:46:30.962Z,106.53
2018-05-02T04:48:59.993Z,112.33
2018-05-02T04:51:29.080Z,118.10
2018-05-02T04:53:58.076Z,110.27
2018-05-02T04:56:26.892Z,119.70
2018-05-02T04:58:55.910Z,122.43
2018-05-02T05:01:24.697Z,107.67
2018-05-02T05:03:53.462Z,121.00
2018-05-02T05:06:22.235Z,108.20
2018-05-02T05:08:51.001Z,130.07
2018-05-02T05:11:20.023Z,107.80
2018-05-02T05:13:49.060Z,117.90
2018-05-02T05:16:17.842Z,104.17
2018-05-02T05:18:47.088Z,114.00
2018-05-02T05:21:15.874Z,116.30
2018-05-02T05:23:44.682Z,133.07
2018-05-02T05:26:13.613Z,111.13
2018-05-02T05:28:43.286Z,101.57
2018-05-02T05:31:18.865Z,130.23
2018-05-02T05:33:49.596Z,108.63
2018-05-02T05:36:18.439Z,110.87
2018-05-02T05:38:47.342Z,113.57
2018-05-02T05:41:16.442Z,102.40
2018-05-02T05:43:45.216Z,94.00
2018-05-02T05:46:14.009Z,93.80
2018-05-02T05:48:42.794Z,102.03
2018-05-02T05:51:11.622Z,97.43
2018-05-02T05:53:40.483Z,110.07
2018-05-02T05:56:10.160Z,103.03
2018-05-02T05:58:39.760Z,102.10
2018-05-02T06:01:08.513Z,112.63
2018-05-02T06:03:37.256Z,95.87
2018-05-02T06:06:06.609Z,95.67
2018-05-02T06:08:35.552Z,97.40
2018-05-02T06:11:04.756Z,99.40
2018-05-02T06:13:33.529Z,121.37
2018-05-02T06:16:02.810Z,114.80
2018-05-02T06:18:31.728Z,102.03
2018-05-02T06:21:00.569Z,100.63
2018-05-02T06:23:29.367Z,111.20
2018-05-02T06:25:58.884Z,98.17
2018-05-02T06:28:27.760Z,111.03
2018-05-02T06:30:56.660Z,103.43
2018-05-02T06:33:25.549Z,102.27
2018-05-02T06:35:54.472Z,106.27
2018-05-02T06:38:23.360Z,106.97
2018-05-02T06:40:52.169Z,99.77
2018-05-02T06:43:20.995Z,101.90
2018-05-02T06:45:50.500Z,99.50
2018-05-02T06:48:19.409Z,107.50
2018-05-02T06:50:48.216Z,102.43
2018-05-02T06:53:17.028Z,99.00
2018-05-02T06:55:45.926Z,103.60
2018-05-02T06:58:14.858Z,100.07
2018-05-02T07:00:43.662Z,106.20
2018-05-02T07:03:12.507Z,101.07
2018-05-02T07:05:41.495Z,115.73
2018-05-02T07:08:10.338Z,108.97
2018-05-02T07:10:40.083Z,104.47
2018-05-02T07:13:08.841Z,105.67
2018-05-02T07:15:38.410Z,94.87
2018-05-02T07:18:08.127Z,101.40
2018-05-02T07:20:37.011Z,104.27
2018-05-02T07:23:05.920Z,97.47
2018-05-02T07:25:34.730Z,101.47
2018-05-02T07:28:03.664Z,92.50
2018-05-02T07:30:33.429Z,97.10
2018-05-02T07:33:02.233Z,93.43
2018-05-02T07:35:31.219Z,85.90
2018-05-02T07:38:00.819Z,92.53
2018-05-02T07:40:30.397Z,90.30
2018-05-02T07:42:59.162Z,82.37
2018-05-02T07:45:27.981Z,90.17
2018-05-02T07:47:57.882Z,94.60
2018-05-02T07:50:28.049Z,96.40
2018-05-02T07:52:57.625Z,90.83
2018-05-02T07:55:26.445Z,85.23
2018-05-02T07:57:55.523Z,93.90
2018-05-02T08:00:25.065Z,88.83
2018-05-02T08:02:53.995Z,89.03
2018-05-02T08:05:23.566Z,110.23
2018-05-02T08:07:52.395Z,91.93
2018-05-02T08:10:22.018Z,92.00
2018-05-02T08:12:51.725Z,92.57
2018-05-02T08:15:21.318Z,85.17
2018-05-02T08:17:50.281Z,89.23
2018-05-02T08:20:19.949Z,90.80
2018-05-02T08:22:49.702Z,88.63
2018-05-02T08:25:18.905Z,86.10
2018-05-02T08:27:48.045Z,92.73
2018-05-02T08:30:17.324Z,88.63
2018-05-02T08:32:46.304Z,89.77
2018-05-02T08:35:16.159Z,90.23
2018-05-02T08:37:47.223Z,95.90
2018-05-02T08:40:16.186Z,96.83
2018-05-02T08:42:45.544Z,88.47
2018-05-02T08:45:14.793Z,97.77
2018-05-02T08:47:44.735Z,86.97
2018-05-02T08:50:14.434Z,81.30
2018-05-02T08:52:45.144Z,97.63
2018-05-02T08:55:16.005Z,98.73
2018-05-02T08:57:44.972Z,95.50
2018-05-02T09:00:14.768Z,95.67
2018-05-02T09:02:47.168Z,93.90
2018-05-02T09:05:16.835Z,93.83
2018-05-02T09:07:45.661Z,95.00
2018-05-02T09:10:14.592Z,96.43
2018-05-02T09:12:43.604Z,97.10
2018-05-02T09:15:12.713Z,108.83
2018-05-02T09:17:42.513Z,97.90
2018-05-02T09:20:11.420Z,91.87
2018-05-02T09:22:41.007Z,92.30
2018-05-02T09:25:09.944Z,92.73
2018-05-02T09:27:38.811Z,97.50
2018-05-02T09:30:13.874Z,97.33
2018-05-02T09:32:44.503Z,99.47
2018-05-02T09:35:15.596Z,99.00
2018-05-02T09:37:44.778Z,94.07
2018-05-02T09:40:15.173Z,91.03
2018-05-02T09:42:47.102Z,89.53
2018-05-02T09:45:17.361Z,89.10
2018-05-02T09:47:48.615Z,85.10
2018-05-02T09:50:17.768Z,89.67
2018-05-02T09:52:46.683Z,89.17
2018-05-02T09:55:16.861Z,93.00
2018-05-02T09:57:47.313Z,78.27
2018-05-02T10:00:16.155Z,84.93
2018-05-02T10:02:47.162Z,83.57
2018-05-02T10:05:17.145Z,79.37
2018-05-02T10:07:46.903Z,84.60
2018-05-02T10:10:16.583Z,92.23
2018-05-02T10:12:46.648Z,91.03
2018-05-02T10:15:17.339Z,74.17
2018-05-02T10:17:46.993Z,74.47
2018-05-02T10:20:17.427Z,76.10
2018-05-02T10:22:48.263Z,71.37
2018-05-02T10:25:17.917Z,75.70
2018-05-02T10:27:46.863Z,71.37
2018-05-02T10:30:16.820Z,64.00
2018-05-02T10:32:47.941Z,68.57
2018-05-02T10:35:18.112Z,71.77
2018-05-02T10:37:50.779Z,70.43
2018-05-02T10:40:21.191Z,75.37
2018-05-02T10:42:51.510Z,62.57
2018-05-02T10:45:22.636Z,62.83
2018-05-02T10:47:52.399Z,69.43
2018-05-02T10:50:21.507Z,72.93
2018-05-02T10:52:51.487Z,64.90
2018-05-02T10:55:21.295Z,59.73
2018-05-02T10:57:50.569Z,58.10
2018-05-02T11:00:19.402Z,53.23
2018-05-02T11:02:48.295Z,63.80
2018-05-02T11:05:17.179Z,60.00
2018-05-02T11:07:46.393Z,64.20
2018-05-02T11:10:15.373Z,59.90
2018-05-02T11:12:44.352Z,57.30
2018-05-02T11:15:13.298Z,62.33
2018-05-02T11:17:42.330Z,54.17
2018-05-02T11:20:12.047Z,81.37
2018-05-02T11:22:41.037Z,53.27
2018-05-02T11:25:10.949Z,58.20
2018-05-02T11:27:41.054Z,55.50
2018-05-02T11:30:10.305Z,61.90
2018-05-02T11:32:39.170Z,61.63
2018-05-02T11:35:09.282Z,57.83
2018-05-02T11:37:38.252Z,62.93
2018-05-02T11:40:08.071Z,64.30
2018-05-02T11:42:37.032Z,60.00
2018-05-02T11:45:05.916Z,59.80
2018-05-02T11:47:34.887Z,63.03
2018-05-02T11:50:03.894Z,66.20
2018-05-02T11:52:32.838Z,59.60
2018-05-02T11:55:01.839Z,62.87
2018-05-02T11:57:30.833Z,66.37
2018-05-02T11:59:59.722Z,69.87
2018-05-02T12:02:28.546Z,59.63
2018-05-02T12:04:57.446Z,65.57
2018-05-02T12:07:27.303Z,65.23
2018-05-02T12:10:03.124Z,66.13
2018-05-02T12:12:42.077Z,65.13
2018-05-02T12:15:14.653Z,62.57
2018-05-02T12:17:46.072Z,63.20
2018-05-02T12:20:15.436Z,61.77
2018-05-02T12:22:44.295Z,59.07
2018-05-02T12:25:20.563Z,68.20
2018-05-02T12:27:52.840Z,62.60
2018-05-02T12:30:24.891Z,62.33
2018-05-02T12:32:54.187Z,62.60
2018-05-02T12:35:30.219Z,56.60
2018-05-02T12:38:01.233Z,61.07
2018-05-02T12:40:31.852Z,63.73
2018-05-02T12:43:00.987Z,61.53
2018-05-02T12:45:29.877Z,62.00
2018-05-02T12:47:58.794Z,58.60
2018-05-02T12:50:27.751Z,58.90
2018-05-02T12:52:56.588Z,63.10
2018-05-02T12:55:25.331Z,60.10
2018-05-02T12:57:54.209Z,66.83
2018-05-02T13:00:22.894Z,58.40
2018-05-02T13:02:52.464Z,59.37
2018-05-02T13:05:21.278Z,60.47
2018-05-02T13:07:50.086Z,60.60
2018-05-02T13:10:18.829Z,54.10
2018-05-02T13:12:47.622Z,66.13
2018-05-02T13:15:17.289Z,60.43
2018-05-02T13:17:46.134Z,60.97
2018-05-02T13:20:15.275Z,63.30
2018-05-02T13:22:44.032Z,57.33
2018-05-02T13:25:13.292Z,57.93
2018-05-02T13:27:42.117Z,57.13
2018-05-02T13:30:11.303Z,59.87
2018-05-02T13:32:40.183Z,60.00
2018-05-02T13:35:09.033Z,64.90
2018-05-02T13:37:37.856Z,58.53
2018-05-02T13:40:06.625Z,56.53
2018-05-02T13:42:35.472Z,58.00
2018-05-02T13:45:04.633Z,61.53
2018-05-02T13:47:34.376Z,59.77
2018-05-02T13:50:03.384Z,58.97
2018-05-02T13:52:32.924Z,71.93
2018-05-02T13:55:02.467Z,60.33
2018-05-02T13:57:31.288Z,60.97
2018-05-02T14:00:00.057Z,64.83
2018-05-02T14:02:28.960Z,52.57
2018-05-02T14:04:57.673Z,54.37
2018-05-02T14:07:26.491Z,51.07
2018-05-02T14:09:55.282Z,54.63
2018-05-02T14:12:24.237Z,68.83
2018-05-02T14:14:52.958Z,60.20
2018-05-02T14:17:21.773Z,52.17
2018-05-02T14:19:51.396Z,55.80
2018-05-02T14:22:20.236Z,47.07
2018-05-02T14:24:48.913Z,52.97
2018-05-02T14:27:17.861Z,54.40
2018-05-02T14:29:46.802Z,50.27
2018-05-02T14:32:15.757Z,46.83
2018-05-02T14:34:45.620Z,57.53
2018-05-02T14:37:14.568Z,45.43
2018-05-02T14:39:44.228Z,48.33
2018-05-02T14:42:13.793Z,46.00
2018-05-02T14:44:42.503Z,44.00
2018-05-02T14:47:11.258Z,44.50
2018-05-02T14:49:40.100Z,53.67
2018-05-02T14:52:09.799Z,52.17
2018-05-02T14:54:38.696Z,52.90
2018-05-02T14:57:07.686Z,47.37
2018-05-02T14:59:36.934Z,89.70
2018-05-02T15:02:05.979Z,45.57
2018-05-02T15:04:36.028Z,54.37
2018-05-02T15:07:04.966Z,47.50
2018-05-02T15:09:33.846Z,42.97
2018-05-02T15:12:02.754Z,55.70
2018-05-02T15:14:31.647Z,44.07
2018-05-02T15:17:01.252Z,46.40
2018-05-02T15:19:30.896Z,60.00
2018-05-02T15:22:00.597Z,46.13
2018-05-02T15:24:29.430Z,54.33
2018-05-02T15:26:58.356Z,50.17
2018-05-02T15:29:27.888Z,52.47
2018-05-02T15:31:57.465Z,46.43
2018-05-02T15:34:26.638Z,46.17
2018-05-02T15:36:56.206Z,49.47
2018-05-02T15:39:27.754Z,49.03
2018-05-02T15:41:56.571Z,46.10
2018-05-02T15:44:26.976Z,62.67
2018-05-02T15:46:55.837Z,57.30
2018-05-02T15:49:25.480Z,56.97
2018-05-02T15:51:54.375Z,58.33
2018-05-02T15:54:23.229Z,59.37
2018-05-02T15:56:53.016Z,66.23
2018-05-02T15:59:23.115Z,69.93
2018-05-02T16:01:52.235Z,68.30
2018-05-02T16:04:21.149Z,71.47
2018-05-02T16:06:50.088Z,56.53
2018-05-02T16:09:18.805Z,64.40
2018-05-02T16:11:47.701Z,65.23
2018-05-02T16:14:16.619Z,60.20
2018-05-02T16:16:45.417Z,61.37
2018-05-02T16:19:14.278Z,64.33
2018-05-02T16:21:43.205Z,71.77
2018-05-02T16:24:12.003Z,65.77
2018-05-02T16:26:40.835Z,74.27
2018-05-02T16:29:09.970Z,70.57
2018-05-02T16:31:39.553Z,67.60
2018-05-02T16:34:08.419Z,74.10
2018-05-02T16:36:38.213Z,70.43
2018-05-02T16:39:07.094Z,73.13
2018-05-02T16:41:36.393Z,76.87
2018-05-02T16:44:06.986Z,85.67
2018-05-02T16:46:36.705Z,86.63
2018-05-02T16:49:06.359Z,85.27
2018-05-02T16:51:35.176Z,90.90
2018-05-02T16:54:04.024Z,85.47
2018-05-02T16:56:33.022Z,80.80
2018-05-02T16:59:02.115Z,81.77
2018-05-02T17:01:33.101Z,99.77
2018-05-02T17:04:02.732Z,106.17
2018-05-02T17:06:31.759Z,100.83
2018-05-02T17:09:00.548Z,90.87
2018-05-02T17:11:29.437Z,106.13
2018-05-02T17:13:59.910Z,82.60
2018-05-02T17:16:29.253Z,79.50
2018-05-02T17:18:58.867Z,88.23
2018-05-02T17:21:30.032Z,85.83
2018-05-02T17:23:59.067Z,82.00
2018-05-02T17:26:27.889Z,82.00
2018-05-02T17:28:56.750Z,79.40
2018-05-02T17:31:26.425Z,75.90
2018-05-02T17:33:55.539Z,78.43
2018-05-02T17:36:26.881Z,87.10
2018-05-02T17:38:56.263Z,83.00
2018-05-02T17:41:25.729Z,80.83
2018-05-02T17:43:55.254Z,85.07
2018-05-02T17:46:25.010Z,89.40
2018-05-02T17:48:54.597Z,87.17
2018-05-02T17:51:25.042Z,82.93
2018-05-02T17:53:54.282Z,82.50
2018-05-02T17:56:23.493Z,82.93
2018-05-02T17:58:54.361Z,82.53
2018-05-02T18:01:24.058Z,86.33
2018-05-02T18:03:53.122Z,94.63
2018-05-02T18:06:22.192Z,105.53
2018-05-02T18:08:51.230Z,107.43
2018-05-02T18:11:20.909Z,95.67
2018-05-02T18:14:02.642Z,104.10
2018-05-02T18:16:31.509Z,101.40
2018-05-02T18:19:00.557Z,98.23
2018-05-02T18:21:29.823Z,90.90
2018-05-02T18:23:59.299Z,96.53
2018-05-02T18:26:28.637Z,84.23
2018-05-02T18:28:57.891Z,88.43
2018-05-02T18:31:27.144Z,97.40
2018-05-02T18:33:56.306Z,86.20
2018-05-02T18:36:28.112Z,86.80
2018-05-02T18:38:57.089Z,97.87
2018-05-02T18:41:26.426Z,113.07
2018-05-02T18:43:56.960Z,103.23
2018-05-02T18:46:26.582Z,102.67
2018-05-02T18:48:56.270Z,100.10
2018-05-02T18:51:26.181Z,101.00
2018-05-02T18:53:55.764Z,89.90
2018-05-02T18:56:25.728Z,93.93
2018-05-02T18:58:55.915Z,88.13
2018-05-02T19:01:26.372Z,84.53
2018-05-02T19:03:56.498Z,84.87
2018-05-02T19:06:26.452Z,131.93
2018-05-02T19:08:55.964Z,95.23
2018-05-02T19:11:26.766Z,122.43
2018-05-02T19:14:02.602Z,124.03
2018-05-02T19:16:32.248Z,167.70
2018-05-02T19:22:05.099Z,94.43
2018-05-02T19:24:42.249Z,130.03
2018-05-02T19:27:12.017Z,100.70
2018-05-02T19:29:41.828Z,111.40
2018-05-02T19:32:17.950Z,118.60
2018-05-02T19:34:48.480Z,102.63
2018-05-02T19:37:18.529Z,111.53
2018-05-02T19:39:53.370Z,109.13
2018-05-02T19:42:29.483Z,106.90
2018-05-02T19:44:59.311Z,95.63
2018-05-02T19:47:29.171Z,92.53
2018-05-02T19:49:59.140Z,93.67
2018-05-02T19:52:34.109Z,102.50
2018-05-02T19:55:04.488Z,83.87
2018-05-02T19:57:34.055Z,97.77
2018-05-02T20:00:03.738Z,91.63
2018-05-02T20:02:38.924Z,89.97
2018-05-02T20:05:08.660Z,90.80
2018-05-02T20:07:42.418Z,99.73
2018-05-02T20:10:18.709Z,92.13
2018-05-02T20:12:53.765Z,101.73
2018-05-02T20:15:23.383Z,93.93
2018-05-02T20:17:52.925Z,102.00
2018-05-02T20:20:22.885Z,116.83
2018-05-02T20:22:52.520Z,105.07
2018-05-02T20:25:22.304Z,98.17
2018-05-02T20:27:53.370Z,99.73
2018-05-02T20:30:23.510Z,100.30
2018-05-02T20:32:53.192Z,100.00
2018-05-02T20:35:23.956Z,102.83
2018-05-02T20:37:56.123Z,108.43
2018-05-02T20:40:33.502Z,116.97
2018-05-02T20:43:06.952Z,112.03
2018-05-02T20:45:41.854Z,106.77
2018-05-02T20:48:15.743Z,119.63
2018-05-02T20:50:49.824Z,127.70
2018-05-02T20:53:21.892Z,127.00
2018-05-02T20:55:56.365Z,131.87
2018-05-02T20:58:29.466Z,118.20
2018-05-02T21:01:01.648Z,115.93
2018-05-02T21:03:38.289Z,117.90
2018-05-02T21:06:12.555Z,127.03
2018-05-02T21:08:49.539Z,121.67
2018-05-02T21:11:24.003Z,117.40
2018-05-02T21:14:01.963Z,119.53
2018-05-02T21:16:38.642Z,118.23
2018-05-02T21:19:10.949Z,122.93
2018-05-02T21:21:42.902Z,128.90
2018-05-02T21:24:14.724Z,125.33
2018-05-02T21:26:48.956Z,133.97
2018-05-02T21:29:23.175Z,127.47
2018-05-02T21:32:00.020Z,118.70
2018-05-02T21:34:31.291Z,133.40
2018-05-02T21:37:00.106Z,127.93
2018-05-02T21:39:29.698Z,137.07
2018-05-02T21:41:59.037Z,143.53
2018-05-02T21:44:27.853Z,135.43
2018-05-02T21:46:56.631Z,128.77
2018-05-02T21:49:25.485Z,128.80
2018-05-02T21:51:55.210Z,136.83
2018-05-02T21:54:24.259Z,133.63
2018-05-02T21:56:53.848Z,154.03
2018-05-02T21:59:23.071Z,153.27
2018-05-02T22:01:52.983Z,162.00
2018-05-02T22:04:22.545Z,159.63
2018-05-02T22:06:51.577Z,165.60
2018-05-02T22:09:21.341Z,166.17
2018-05-02T22:11:50.511Z,170.70
2018-05-02T22:14:19.455Z,178.17
2018-05-02T22:16:48.356Z,172.57
2018-05-02T22:19:17.172Z,159.57
2018-05-02T22:21:46.862Z,150.57
2018-05-02T22:24:15.861Z,139.33
2018-05-02T22:26:44.624Z,153.03
2018-05-02T22:29:13.381Z,146.33
2018-05-02T22:31:42.182Z,170.30
2018-05-02T22:34:11.235Z,162.93
2018-05-02T22:36:40.172Z,158.43
2018-05-02T22:39:08.992Z,156.37
2018-05-02T22:41:37.955Z,165.93
2018-05-02T22:44:06.816Z,160.43
2018-05-02T22:46:36.362Z,166.50
2018-05-02T22:49:05.478Z,161.83
2018-05-02T22:51:34.408Z,160.43
2018-05-02T22:54:03.263Z,158.90
2018-05-02T22:56:32.096Z,157.00
2018-05-02T22:59:00.921Z,151.00
2018-05-02T23:01:29.908Z,164.43
2018-05-02T23:03:58.679Z,170.73
2018-05-02T23:06:27.400Z,172.70
2018-05-02T23:08:56.212Z,153.03
2018-05-02T23:11:25.475Z,139.50
2018-05-02T23:13:54.466Z,129.07
2018-05-02T23:16:23.405Z,124.97
2018-05-02T23:18:53.061Z,121.87
2018-05-02T23:21:21.843Z,118.63
2018-05-02T23:23:50.695Z,123.23
2018-05-02T23:26:20.465Z,130.67
2018-05-02T23:28:49.295Z,120.20
2018-05-02T23:31:18.012Z,121.60
2018-05-02T23:33:46.891Z,135.40
2018-05-02T23:36:15.713Z,127.07
2018-05-02T23:38:44.696Z,131.47
2018-05-02T23:41:13.669Z,128.03
2018-05-02T23:43:42.455Z,135.10
2018-05-02T23:46:12.263Z,157.60
2018-05-02T23:48:41.051Z,172.77
2018-05-02T23:51:10.608Z,194.57
2018-05-02T23:53:40.126Z,187.73
2018-05-02T23:56:09.076Z,176.47
2018-05-02T23:58:37.945Z,176.50
